CheckWX is a tool to help pilots better visualize weather data.  It is not intended as a substitute for an official pre-flight weather briefing.

19:44:29 UTC

KGBD METAR
Great Bend Municipal Airport
Great Bend, Kansas, USA
Current

48 mins ago

KGBD 201856Z AUTO 18018G26KT 10SM SCT110 18/11 A2964 RMK AO2 PK WND 17027/1822 SLP031 T01780111 $
Observed
Nov-20 @ 18:56 UTC
Wind
  • 180° at 18 KTS
  • Gusting to 26 KTS
Visibility
10 SM
Flight Rules
VFR
Cloud Levels
  • Scattered at 11,000' AGL
Temperature
18°C / 64°F
Dewpoint
11°C / 52°F
Humidity
64%
Altimeter
29.64" Hg
Pressure
1003.72 hPa
Previous

2 hours ago

KGBD 201756Z AUTO 17017G23KT 10SM BKN110 16/11 A2965 RMK AO2 PK WND 17028/1709 SLP037 T01610106 10161 20094 58004 $
Observed
Nov-20 @ 17:56 UTC
Wind
  • 170° at 17 KTS
  • Gusting to 23 KTS
Visibility
10 SM
Flight Rules
VFR
Cloud Levels
  • Broken at 11,000' AGL
Temperature
16°C / 61°F
Dewpoint
11°C / 52°F
Humidity
72%
Altimeter
29.65" Hg
Pressure
1004.02 hPa
Previous

3 hours ago

KGBD 201656Z AUTO 16020G26KT 10SM CLR 15/10 A2968 RMK AO2 PK WND 18029/1612 SLP044 T01500100 $
Observed
Nov-20 @ 16:56 UTC
Wind
  • 160° at 20 KTS
  • Gusting to 26 KTS
Visibility
10 SM
Flight Rules
VFR
Cloud Levels
  • Clear skies
Temperature
15°C / 59°F
Dewpoint
10°C / 50°F
Humidity
72%
Altimeter
29.68" Hg
Pressure
1005.12 hPa